Terminal Aerodrome Forecast
Issued by NWS

Home | Current Version | Previous Version | Text Only | Print | Product List | Glossary On
Versions: 1 2 3 4 5 6 7 8 9 10 11 12 13 14 15 16
000
FTUS45 KTFX 022343
TAFHLN
TAF
KHLN 022343Z 0300/0324 28006KT P6SM SCT060 BKN100
      TEMPO 0300/0302 VRB15G35KT TSRA BKN060CB
     FM030200 26007KT P6SM SCT045 BKN090
     FM030600 25005KT P6SM BKN120
     FM031700 VRB05KT P6SM SCT050 BKN090 PROB30 0320/0324 -TSRA
      BKN050CB=

USA.gov is the U.S. government's official web portal to all federal, state and local government web resources and services.